Terminal Aerodrome Forecast
Issued by NWS

Home | Current Version | Previous Version | Text Only | Print | Product List | Glossary On
Versions: 1 2 3 4 5 6 7 8 9 10 11 12 13 14 15 16
863
FTUS43 KAPX 132336
TAFPLN
TAF
KPLN 132336Z 1400/1424 04008KT 5SM -SHSN OVC020
      TEMPO 1400/1401 1 1/2SM -SHSN OVC015
     FM140100 03009KT P6SM BKN120
     FM140300 02009KT P6SM SCT200
     FM140900 35005KT P6SM SCT150
     FM141100 34004KT P6SM BKN025
     FM141900 29006KT P6SM -SHSN BKN025=

USA.gov is the U.S. government's official web portal to all federal, state and local government web resources and services.